createdAt,value
2023-04-19T00:00:14.554Z,76.61
2023-04-19T00:02:42.758Z,76.74
2023-04-19T00:05:12.002Z,76.57
2023-04-19T00:07:38.552Z,76.84
2023-04-19T00:10:05.551Z,76.73
2023-04-19T00:12:31.950Z,76.82
2023-04-19T00:14:58.692Z,76.95
2023-04-19T00:17:25.118Z,76.98
2023-04-19T00:19:52.179Z,76.93
2023-04-19T00:22:18.646Z,77.13
2023-04-19T00:24:45.071Z,76.99
2023-04-19T00:27:11.444Z,77.17
2023-04-19T00:29:37.896Z,77.06
2023-04-19T00:32:05.951Z,77.10
2023-04-19T00:34:32.472Z,77.27
2023-04-19T00:36:58.997Z,77.19
2023-04-19T00:39:25.662Z,77.33
2023-04-19T00:41:53.073Z,77.33
2023-04-19T00:44:19.565Z,77.29
2023-04-19T00:46:46.071Z,77.26
2023-04-19T00:49:12.816Z,77.41
2023-04-19T00:51:39.296Z,77.51
2023-04-19T00:54:07.752Z,77.49
2023-04-19T00:56:34.584Z,77.48
2023-04-19T00:59:01.335Z,77.60
2023-04-19T01:01:28.805Z,77.48
2023-04-19T01:03:55.736Z,77.71
2023-04-19T01:06:22.324Z,77.66
2023-04-19T01:08:48.774Z,77.59
2023-04-19T01:11:15.140Z,77.61
2023-04-19T01:13:41.528Z,77.53
2023-04-19T01:16:08.057Z,77.82
2023-04-19T01:18:37.504Z,78.06
2023-04-19T01:21:04.225Z,77.75
2023-04-19T01:23:30.988Z,77.85
2023-04-19T01:25:57.711Z,77.83
2023-04-19T01:28:24.184Z,77.89
2023-04-19T01:30:54.790Z,77.95
2023-04-19T01:33:22.026Z,78.00
2023-04-19T01:35:49.057Z,78.04
2023-04-19T01:38:16.791Z,77.87
2023-04-19T01:40:43.648Z,77.97
2023-04-19T01:43:12.655Z,78.18
2023-04-19T01:45:39.272Z,78.12
2023-04-19T01:48:06.161Z,78.21
2023-04-19T01:50:32.949Z,78.14
2023-04-19T01:53:00.336Z,78.25
2023-04-19T01:55:26.885Z,78.38
2023-04-19T01:57:54.823Z,78.32
2023-04-19T02:00:21.832Z,78.42
2023-04-19T02:02:48.766Z,78.48
2023-04-19T02:05:15.736Z,78.32
2023-04-19T02:07:42.167Z,78.65
2023-04-19T02:10:11.996Z,78.37
2023-04-19T02:12:38.416Z,78.51
2023-04-19T02:15:05.377Z,78.43
2023-04-19T02:17:32.436Z,78.61
2023-04-19T02:19:58.908Z,78.72
2023-04-19T02:22:25.386Z,78.66
2023-04-19T02:24:51.889Z,78.52
2023-04-19T02:27:18.487Z,78.70
2023-04-19T02:29:45.273Z,78.69
2023-04-19T02:32:14.676Z,78.79
2023-04-19T02:34:41.192Z,78.72
2023-04-19T02:37:07.607Z,78.73
2023-04-19T02:39:34.337Z,78.86
2023-04-19T02:42:01.395Z,78.94
2023-04-19T02:44:27.804Z,78.92
2023-04-19T02:46:54.835Z,78.90
2023-04-19T02:49:21.641Z,78.96
2023-04-19T02:51:48.046Z,79.01
2023-04-19T02:54:14.833Z,78.90
2023-04-19T02:56:41.537Z,79.08
2023-04-19T02:59:09.712Z,79.11
2023-04-19T03:01:36.311Z,79.08
2023-04-19T03:04:03.126Z,79.21
2023-04-19T03:06:29.512Z,79.08
2023-04-19T03:08:55.958Z,79.29
2023-04-19T03:11:22.411Z,79.09
2023-04-19T03:13:48.894Z,79.10
2023-04-19T03:16:15.373Z,79.31
2023-04-19T03:18:41.798Z,79.46
2023-04-19T03:21:09.493Z,79.38
2023-04-19T03:23:35.926Z,79.22
2023-04-19T03:26:02.456Z,79.40
2023-04-19T03:28:28.824Z,79.48
2023-04-19T03:30:55.290Z,79.42
2023-04-19T03:33:21.705Z,79.52
2023-04-19T03:35:48.118Z,79.62
2023-04-19T03:38:14.543Z,79.77
2023-04-19T03:40:40.970Z,79.50
2023-04-19T03:43:07.340Z,79.72
2023-04-19T03:45:33.732Z,79.88
2023-04-19T03:48:02.631Z,79.97
2023-04-19T03:50:29.472Z,79.90
2023-04-19T03:52:55.915Z,80.01
2023-04-19T03:55:22.371Z,80.10
2023-04-19T03:57:48.910Z,80.22
2023-04-19T04:00:16.583Z,80.29
2023-04-19T04:02:43.157Z,80.22
2023-04-19T04:05:09.816Z,80.27
2023-04-19T04:07:36.384Z,80.29
2023-04-19T04:10:02.844Z,80.30
2023-04-19T04:12:29.236Z,80.21
2023-04-19T04:14:55.835Z,80.45
2023-04-19T04:17:24.126Z,80.47
2023-04-19T04:19:50.608Z,80.46
2023-04-19T04:22:17.416Z,80.45
2023-04-19T04:24:44.141Z,80.47
2023-04-19T04:27:11.212Z,80.43
2023-04-19T04:29:38.578Z,80.59
2023-04-19T04:32:08.611Z,80.55
2023-04-19T04:34:36.625Z,80.44
2023-04-19T04:37:04.021Z,80.54
2023-04-19T04:39:30.622Z,80.61
2023-04-19T04:41:59.654Z,80.67
2023-04-19T04:44:27.768Z,80.44
2023-04-19T04:46:54.479Z,80.49
2023-04-19T04:49:20.915Z,80.48
2023-04-19T04:51:47.453Z,80.17
2023-04-19T04:54:14.047Z,80.19
2023-04-19T04:56:40.741Z,80.44
2023-04-19T04:59:07.896Z,80.50
2023-04-19T05:01:34.523Z,80.49
2023-04-19T05:04:01.243Z,80.30
2023-04-19T05:06:27.773Z,80.55
2023-04-19T05:08:54.323Z,80.41
2023-04-19T05:11:20.927Z,80.36
2023-04-19T05:13:47.465Z,80.28
2023-04-19T05:16:13.977Z,80.43
2023-04-19T05:18:40.659Z,80.50
2023-04-19T05:21:10.370Z,80.29
2023-04-19T05:23:38.026Z,80.43
2023-04-19T05:26:04.661Z,80.52
2023-04-19T05:28:31.171Z,80.54
2023-04-19T05:30:57.935Z,80.47
2023-04-19T05:33:24.353Z,80.56
2023-04-19T05:35:51.840Z,80.32
2023-04-19T05:38:18.762Z,80.32
2023-04-19T05:40:45.353Z,80.32
2023-04-19T05:43:11.814Z,80.20
2023-04-19T05:45:38.369Z,80.37
2023-04-19T05:48:05.414Z,80.48
2023-04-19T05:50:32.010Z,80.53
2023-04-19T05:52:58.854Z,80.18
2023-04-19T05:55:25.317Z,80.12
2023-04-19T05:57:51.721Z,80.27
2023-04-19T06:00:19.055Z,80.26
2023-04-19T06:02:45.734Z,80.07
2023-04-19T06:05:12.683Z,80.26
2023-04-19T06:07:43.263Z,79.92
2023-04-19T06:10:15.928Z,79.82
2023-04-19T06:12:42.308Z,79.71
2023-04-19T06:15:09.274Z,79.67
2023-04-19T06:17:35.855Z,79.51
2023-04-19T06:20:02.286Z,79.62
2023-04-19T06:22:28.709Z,79.52
2023-04-19T06:24:55.318Z,79.42
2023-04-19T06:27:21.748Z,79.50
2023-04-19T06:29:50.491Z,79.43
2023-04-19T06:32:17.577Z,79.38
2023-04-19T06:34:44.038Z,79.53
2023-04-19T06:37:10.429Z,79.15
2023-04-19T06:39:36.811Z,78.94
2023-04-19T06:42:03.695Z,78.85
2023-04-19T06:44:30.161Z,78.81
2023-04-19T06:46:56.652Z,78.64
2023-04-19T06:49:23.057Z,78.60
2023-04-19T06:51:49.697Z,78.46
2023-04-19T06:54:16.414Z,78.26
2023-04-19T06:56:45.921Z,78.01
2023-04-19T06:59:17.566Z,78.14
2023-04-19T07:01:44.565Z,78.29
2023-04-19T07:04:12.854Z,78.24
2023-04-19T07:06:39.964Z,78.28
2023-04-19T07:09:07.537Z,78.33
2023-04-19T07:11:34.797Z,77.92
2023-04-19T07:14:01.335Z,77.73
2023-04-19T07:16:28.367Z,77.60
2023-04-19T07:18:54.977Z,77.60
2023-04-19T07:21:21.463Z,77.54
2023-04-19T07:23:47.932Z,77.55
2023-04-19T07:26:14.996Z,77.34
2023-04-19T07:28:42.347Z,77.08
2023-04-19T07:31:14.198Z,77.06
2023-04-19T07:33:40.557Z,76.99
2023-04-19T07:36:07.410Z,76.74
2023-04-19T07:38:33.763Z,76.71
2023-04-19T07:41:00.264Z,76.44
2023-04-19T07:43:26.961Z,76.05
2023-04-19T07:45:53.505Z,75.83
2023-04-19T07:48:19.986Z,75.36
2023-04-19T07:50:46.404Z,75.20
2023-04-19T07:53:12.876Z,74.59
2023-04-19T07:55:39.343Z,74.21
2023-04-19T07:58:05.799Z,74.11
2023-04-19T08:00:34.726Z,73.99
2023-04-19T08:03:01.287Z,73.58
2023-04-19T08:05:28.177Z,73.83
2023-04-19T08:07:54.707Z,73.52
2023-04-19T08:10:22.418Z,72.98
2023-04-19T08:13:04.288Z,72.58
2023-04-19T08:18:01.001Z,72.21
2023-04-19T08:20:27.588Z,72.20
2023-04-19T08:22:54.249Z,72.15
2023-04-19T08:25:21.289Z,71.85
2023-04-19T08:27:47.729Z,71.75
2023-04-19T08:30:14.286Z,71.78
2023-04-19T08:32:40.838Z,71.68
2023-04-19T08:35:08.315Z,71.98
2023-04-19T08:37:34.774Z,71.76
2023-04-19T08:40:01.538Z,71.88
2023-04-19T08:42:35.469Z,71.73
2023-04-19T08:47:44.905Z,71.53
2023-04-19T08:50:31.022Z,71.69
2023-04-19T08:53:11.998Z,71.89
2023-04-19T08:56:06.716Z,71.88
2023-04-19T08:58:54.814Z,71.59
2023-04-19T09:04:03.302Z,71.35
2023-04-19T09:13:54.913Z,70.65
2023-04-19T09:16:37.235Z,70.86
2023-04-19T09:22:38.739Z,70.40
2023-04-19T09:28:54.815Z,69.83
2023-04-19T09:32:03.163Z,69.23
2023-04-19T09:35:21.926Z,69.51
2023-04-19T09:45:31.209Z,68.85
2023-04-19T09:57:22.787Z,67.73
2023-04-19T09:59:49.181Z,67.06
2023-04-19T10:02:16.292Z,66.71
2023-04-19T10:05:02.575Z,66.52
2023-04-19T10:07:31.602Z,67.19
2023-04-19T10:10:11.914Z,66.66
2023-04-19T10:15:23.371Z,66.57
2023-04-19T10:17:50.259Z,66.61
2023-04-19T10:20:27.990Z,66.54
2023-04-19T10:22:54.595Z,66.91
2023-04-19T10:25:28.439Z,67.32
2023-04-19T10:27:54.910Z,67.17
2023-04-19T10:30:23.226Z,67.52
2023-04-19T10:32:56.146Z,67.53
2023-04-19T10:35:25.407Z,67.86
2023-04-19T10:38:12.836Z,67.92
2023-04-19T10:40:55.916Z,67.54
2023-04-19T10:43:23.718Z,67.38
2023-04-19T10:45:50.213Z,67.21
2023-04-19T10:48:33.370Z,67.18
2023-04-19T10:51:05.760Z,67.00
2023-04-19T10:53:50.721Z,67.37
2023-04-19T10:56:19.539Z,67.19
2023-04-19T10:59:01.226Z,67.58
2023-04-19T11:01:44.780Z,67.74
2023-04-19T11:04:40.508Z,67.99
2023-04-19T11:07:07.361Z,68.35
2023-04-19T11:09:45.057Z,68.36
2023-04-19T11:12:17.481Z,68.58
2023-04-19T11:14:52.692Z,68.81
2023-04-19T11:17:27.990Z,68.61
2023-04-19T11:19:57.710Z,69.04
2023-04-19T11:22:26.988Z,69.25
2023-04-19T11:24:53.657Z,69.34
2023-04-19T11:27:21.354Z,69.27
2023-04-19T11:32:15.549Z,69.77
2023-04-19T11:34:41.994Z,69.84
2023-04-19T11:37:10.847Z,70.17
2023-04-19T11:39:45.637Z,70.18
2023-04-19T11:42:20.592Z,70.34
2023-04-19T11:44:51.879Z,70.53
2023-04-19T11:47:19.757Z,70.71
2023-04-19T11:49:46.261Z,70.89
2023-04-19T11:52:12.698Z,71.00
2023-04-19T11:54:40.037Z,71.43
2023-04-19T11:57:09.322Z,71.71
2023-04-19T11:59:36.463Z,71.91
2023-04-19T12:02:12.926Z,72.05
2023-04-19T12:04:40.197Z,72.32
2023-04-19T12:07:07.325Z,72.59
2023-04-19T12:09:36.038Z,72.99
2023-04-19T12:12:03.111Z,72.89
2023-04-19T12:14:30.478Z,73.20
2023-04-19T12:17:11.874Z,73.37
2023-04-19T12:19:44.442Z,73.82
2023-04-19T12:22:13.793Z,73.66
2023-04-19T12:24:40.959Z,73.98
2023-04-19T12:27:08.286Z,74.01
2023-04-19T12:29:35.572Z,74.11
2023-04-19T12:32:02.772Z,74.23
2023-04-19T12:34:29.444Z,74.01
2023-04-19T12:36:57.306Z,74.18
2023-04-19T12:39:26.715Z,73.91
2023-04-19T12:41:55.501Z,74.38
2023-04-19T12:44:23.579Z,74.73
2023-04-19T12:46:50.738Z,74.88
2023-04-19T12:49:22.364Z,74.82
2023-04-19T12:51:48.955Z,74.89
2023-04-19T12:54:16.032Z,75.12
2023-04-19T12:56:42.537Z,74.99
2023-04-19T12:59:09.023Z,74.85
2023-04-19T13:01:36.816Z,74.80
2023-04-19T13:04:04.066Z,75.03
2023-04-19T13:06:31.287Z,74.92
2023-04-19T13:09:01.059Z,74.80
2023-04-19T13:11:28.433Z,75.14
2023-04-19T13:13:54.853Z,74.91
2023-04-19T13:16:22.488Z,74.79
2023-04-19T13:18:49.390Z,74.79
2023-04-19T13:21:15.788Z,74.88
2023-04-19T13:23:43.875Z,74.51
2023-04-19T13:26:10.673Z,74.57
2023-04-19T13:28:37.133Z,74.46
2023-04-19T13:31:04.831Z,74.36
2023-04-19T13:33:31.337Z,74.34
2023-04-19T13:35:57.933Z,74.34
2023-04-19T13:38:25.010Z,74.52
2023-04-19T13:40:51.468Z,74.53
2023-04-19T13:43:17.968Z,74.57
2023-04-19T13:45:44.516Z,74.85
2023-04-19T13:48:11.003Z,74.76
2023-04-19T13:50:37.578Z,74.40
2023-04-19T13:53:04.045Z,74.46
2023-04-19T13:55:30.527Z,74.27
2023-04-19T13:57:57.045Z,74.25
2023-04-19T14:00:24.000Z,74.38
2023-04-19T14:02:52.441Z,74.13
2023-04-19T14:05:19.365Z,73.75
2023-04-19T14:07:46.080Z,73.29
2023-04-19T14:10:12.571Z,73.38
2023-04-19T14:12:38.995Z,72.82
2023-04-19T14:15:05.825Z,72.18
2023-04-19T14:17:32.623Z,71.66
2023-04-19T14:19:59.081Z,71.07
2023-04-19T14:22:25.889Z,70.69
2023-04-19T14:24:52.358Z,70.20
2023-04-19T14:27:19.254Z,70.12
2023-04-19T14:29:45.664Z,70.60
2023-04-19T14:32:25.059Z,70.63
2023-04-19T14:34:53.498Z,70.55
2023-04-19T14:37:21.851Z,70.27
2023-04-19T14:39:48.266Z,70.45
2023-04-19T14:42:14.720Z,70.77
2023-04-19T14:44:41.243Z,71.15
2023-04-19T14:47:07.830Z,71.27
2023-04-19T14:49:34.254Z,71.65
2023-04-19T14:52:00.963Z,71.89
2023-04-19T14:54:27.664Z,71.82
2023-04-19T14:56:54.083Z,71.66
2023-04-19T14:59:20.559Z,71.75
2023-04-19T15:01:47.367Z,71.52
2023-04-19T15:04:14.054Z,71.35
2023-04-19T15:06:41.169Z,71.08
2023-04-19T15:09:07.747Z,70.99
2023-04-19T15:11:34.263Z,70.66
2023-04-19T15:14:00.767Z,70.15
2023-04-19T15:16:27.316Z,69.82
2023-04-19T15:18:53.943Z,69.93
2023-04-19T15:21:24.158Z,69.68
2023-04-19T15:23:51.185Z,69.52
2023-04-19T15:26:17.623Z,69.25
2023-04-19T15:28:44.199Z,69.07
2023-04-19T15:31:10.935Z,68.58
2023-04-19T15:33:37.851Z,68.37
2023-04-19T15:36:04.863Z,68.57
2023-04-19T15:38:32.252Z,68.83
2023-04-19T15:41:00.256Z,69.30
2023-04-19T15:43:26.841Z,69.40
2023-04-19T15:45:53.439Z,69.41
2023-04-19T15:48:20.811Z,69.56
2023-04-19T15:50:47.400Z,69.47
2023-04-19T15:53:14.238Z,69.21
2023-04-19T15:55:41.494Z,69.27
2023-04-19T15:58:08.240Z,69.66
2023-04-19T16:00:34.767Z,69.76
2023-04-19T16:03:01.413Z,69.85
2023-04-19T16:05:28.129Z,69.88
2023-04-19T16:08:02.632Z,69.77
2023-04-19T16:10:29.183Z,69.58
2023-04-19T16:12:55.744Z,69.42
2023-04-19T16:15:22.243Z,69.33
2023-04-19T16:17:48.659Z,69.11
2023-04-19T16:20:15.198Z,69.14
2023-04-19T16:22:41.627Z,69.07
2023-04-19T16:25:10.169Z,69.19
2023-04-19T16:27:36.846Z,69.36
2023-04-19T16:30:03.897Z,69.33
2023-04-19T16:32:30.363Z,69.26
2023-04-19T16:34:56.969Z,69.50
2023-04-19T16:37:23.379Z,69.21
2023-04-19T16:39:50.202Z,69.38
2023-04-19T16:42:16.641Z,69.35
2023-04-19T16:44:43.106Z,69.81
2023-04-19T16:47:09.581Z,70.08
2023-04-19T16:49:36.092Z,70.46
2023-04-19T16:52:02.634Z,70.37
2023-04-19T16:54:29.119Z,70.49
2023-04-19T16:56:55.640Z,70.77
2023-04-19T16:59:22.108Z,70.60
2023-04-19T17:01:48.575Z,70.76
2023-04-19T17:04:15.240Z,70.70
2023-04-19T17:06:41.872Z,70.32
2023-04-19T17:09:08.358Z,70.70
2023-04-19T17:11:34.805Z,70.94
2023-04-19T17:14:01.478Z,71.13
2023-04-19T17:16:28.086Z,70.78
2023-04-19T17:18:56.044Z,70.26
2023-04-19T17:21:22.536Z,69.80
2023-04-19T17:23:49.133Z,69.71
2023-04-19T17:26:18.414Z,69.21
2023-04-19T17:28:44.811Z,68.85
2023-04-19T17:31:11.369Z,68.57
2023-04-19T17:33:38.859Z,68.41
2023-04-19T17:36:06.362Z,68.14
2023-04-19T17:38:32.977Z,67.91
2023-04-19T17:40:59.641Z,67.66
2023-04-19T17:43:26.268Z,67.40
2023-04-19T17:45:52.716Z,67.11
2023-04-19T17:48:19.160Z,66.91
2023-04-19T17:50:45.562Z,66.78
2023-04-19T17:53:12.140Z,66.57
2023-04-19T17:55:40.209Z,66.30
2023-04-19T17:58:06.684Z,65.89
2023-04-19T18:00:33.085Z,65.64
2023-04-19T18:03:01.320Z,65.40
2023-04-19T18:05:27.936Z,65.11
2023-04-19T18:07:54.830Z,65.01
2023-04-19T18:10:23.236Z,64.89
2023-04-19T18:12:49.706Z,64.76
2023-04-19T18:15:16.255Z,64.55
2023-04-19T18:17:42.670Z,64.33
2023-04-19T18:20:11.298Z,64.10
2023-04-19T18:22:39.646Z,64.04
2023-04-19T18:25:08.245Z,63.80
2023-04-19T18:27:34.678Z,63.79
2023-04-19T18:30:03.810Z,63.75
2023-04-19T18:32:31.922Z,63.48
2023-04-19T18:34:58.458Z,63.18
2023-04-19T18:37:24.834Z,63.18
2023-04-19T18:39:51.282Z,63.18
2023-04-19T18:42:17.681Z,63.21
2023-04-19T18:44:53.679Z,63.04
2023-04-19T18:47:21.388Z,62.93
2023-04-19T18:50:02.626Z,62.78
2023-04-19T18:52:31.378Z,62.79
2023-04-19T18:54:58.403Z,62.57
2023-04-19T18:57:27.498Z,62.59
2023-04-19T18:59:56.494Z,62.50
2023-04-19T19:02:23.327Z,62.40
2023-04-19T19:04:57.016Z,62.22
2023-04-19T19:07:35.435Z,62.41
2023-04-19T19:10:17.093Z,62.19
2023-04-19T19:12:47.363Z,62.19
2023-04-19T19:15:14.007Z,62.13
2023-04-19T19:17:40.845Z,62.06
2023-04-19T19:20:08.170Z,62.01
2023-04-19T19:22:34.861Z,61.96
2023-04-19T19:25:01.768Z,62.10
2023-04-19T19:27:28.469Z,62.00
2023-04-19T19:29:55.198Z,62.01
2023-04-19T19:32:22.034Z,62.08
2023-04-19T19:37:19.058Z,61.89
2023-04-19T19:39:46.364Z,62.07
2023-04-19T19:42:16.324Z,62.08
2023-04-19T19:44:43.204Z,62.06
2023-04-19T19:47:11.368Z,62.18
2023-04-19T19:52:07.596Z,62.21
2023-04-19T19:54:34.193Z,62.25
2023-04-19T19:57:52.917Z,62.20
2023-04-19T19:59:54.378Z,62.30
2023-04-19T20:02:22.186Z,62.36
2023-04-19T20:04:49.497Z,62.20
2023-04-19T20:09:45.652Z,62.22
2023-04-19T20:12:16.271Z,62.01
2023-04-19T20:14:42.710Z,62.18
2023-04-19T20:17:09.182Z,62.35
2023-04-19T20:19:35.858Z,62.10
2023-04-19T20:22:02.484Z,61.95
2023-04-19T20:24:29.805Z,62.03
2023-04-19T20:26:57.441Z,62.27
2023-04-19T20:29:24.661Z,62.30
2023-04-19T20:31:51.158Z,62.09
2023-04-19T20:34:17.668Z,62.35
2023-04-19T20:36:46.860Z,62.42
2023-04-19T20:39:13.824Z,62.54
2023-04-19T20:41:40.481Z,62.72
2023-04-19T20:44:06.926Z,62.85
2023-04-19T20:46:34.761Z,62.99
2023-04-19T20:49:01.296Z,63.12
2023-04-19T20:51:27.722Z,63.15
2023-04-19T20:53:54.088Z,63.28
2023-04-19T20:56:20.696Z,63.40
2023-04-19T20:58:47.095Z,63.42
2023-04-19T21:01:17.135Z,63.53
2023-04-19T21:03:44.534Z,63.95
2023-04-19T21:08:37.946Z,63.77
2023-04-19T21:11:04.418Z,63.83
2023-04-19T21:13:32.319Z,63.84
2023-04-19T21:15:58.959Z,63.89
2023-04-19T21:18:27.705Z,63.83
2023-04-19T21:20:54.079Z,64.07
2023-04-19T21:23:20.618Z,64.09
2023-04-19T21:25:47.104Z,64.26
2023-04-19T21:28:13.598Z,64.33
2023-04-19T21:30:43.031Z,64.57
2023-04-19T21:33:09.974Z,64.54
2023-04-19T21:35:36.403Z,64.69
2023-04-19T21:38:02.834Z,64.61
2023-04-19T21:40:29.282Z,64.67
2023-04-19T21:42:57.133Z,64.73
2023-04-19T21:45:23.662Z,64.94
2023-04-19T21:47:50.948Z,65.07
2023-04-19T21:50:17.481Z,65.09
2023-04-19T21:52:44.974Z,65.19
2023-04-19T21:55:11.436Z,65.07
2023-04-19T21:57:38.476Z,65.18
2023-04-19T22:00:11.111Z,65.18
2023-04-19T22:02:37.660Z,65.40
2023-04-19T22:05:07.022Z,65.55
2023-04-19T22:07:33.496Z,65.47
2023-04-19T22:10:03.041Z,65.67
2023-04-19T22:12:29.445Z,65.61
2023-04-19T22:14:56.053Z,65.58
2023-04-19T22:17:23.001Z,65.41
2023-04-19T22:19:49.588Z,65.17
2023-04-19T22:22:16.051Z,65.44
2023-04-19T22:24:56.262Z,65.38
2023-04-19T22:27:24.756Z,65.62
2023-04-19T22:29:51.248Z,65.67
2023-04-19T22:32:17.939Z,65.68
2023-04-19T22:34:44.617Z,65.91
2023-04-19T22:37:11.073Z,66.01
2023-04-19T22:39:37.522Z,65.84
2023-04-19T22:42:04.122Z,66.22
2023-04-19T22:44:30.594Z,66.28
2023-04-19T22:46:58.153Z,66.37
2023-04-19T22:49:24.659Z,66.37
2023-04-19T22:51:51.174Z,66.34
2023-04-19T22:54:17.727Z,66.67
2023-04-19T22:56:44.211Z,66.92
2023-04-19T22:59:10.812Z,67.09
2023-04-19T23:01:37.266Z,66.86
2023-04-19T23:04:03.735Z,67.03
2023-04-19T23:06:30.417Z,66.96
2023-04-19T23:08:56.845Z,67.10
2023-04-19T23:11:25.124Z,67.00
2023-04-19T23:13:54.851Z,67.02
2023-04-19T23:16:25.254Z,67.23
2023-04-19T23:18:52.108Z,67.22
2023-04-19T23:21:18.740Z,67.18
2023-04-19T23:23:45.403Z,67.16
2023-04-19T23:26:11.990Z,67.41
2023-04-19T23:28:38.461Z,67.53
2023-04-19T23:31:05.026Z,67.57
2023-04-19T23:33:31.534Z,67.95
2023-04-19T23:35:57.886Z,67.77
2023-04-19T23:38:24.363Z,67.82
2023-04-19T23:40:50.799Z,67.94
2023-04-19T23:45:45.048Z,67.84
2023-04-19T23:48:11.534Z,68.11
2023-04-19T23:50:37.956Z,67.96
2023-04-19T23:53:05.506Z,68.12
2023-04-19T23:55:31.992Z,68.71
2023-04-19T23:57:58.517Z,68.72
